createdAt,value
2023-03-22T00:01:52.038Z,37.92
2023-03-22T00:04:18.891Z,37.81
2023-03-22T00:06:45.777Z,37.93
2023-03-22T00:09:12.699Z,37.85
2023-03-22T00:11:39.590Z,37.92
2023-03-22T00:14:06.471Z,37.94
2023-03-22T00:16:33.350Z,37.98
2023-03-22T00:19:01.576Z,38.05
2023-03-22T00:21:28.436Z,38.01
2023-03-22T00:23:55.235Z,38.10
2023-03-22T00:26:22.056Z,37.94
2023-03-22T00:28:49.527Z,37.59
2023-03-22T00:31:16.360Z,37.63
2023-03-22T00:33:43.181Z,37.68
2023-03-22T00:36:12.219Z,37.94
2023-03-22T00:38:43.682Z,37.89
2023-03-22T00:41:12.097Z,37.69
2023-03-22T00:43:38.968Z,37.77
2023-03-22T00:46:06.256Z,37.90
2023-03-22T00:48:33.109Z,37.83
2023-03-22T00:51:00.042Z,38.02
2023-03-22T00:53:28.332Z,38.12
2023-03-22T00:55:55.586Z,37.90
2023-03-22T00:58:22.388Z,38.06
2023-03-22T01:00:49.337Z,38.23
2023-03-22T01:03:16.265Z,38.08
2023-03-22T01:05:44.973Z,38.00
2023-03-22T01:08:11.888Z,37.99
2023-03-22T01:10:41.087Z,38.22
2023-03-22T01:13:08.448Z,37.99
2023-03-22T01:15:35.304Z,38.07
2023-03-22T01:18:02.811Z,37.88
2023-03-22T01:20:29.786Z,37.97
2023-03-22T01:22:56.622Z,37.74
2023-03-22T01:25:23.475Z,37.98
2023-03-22T01:27:51.652Z,37.87
2023-03-22T01:30:18.553Z,38.11
2023-03-22T01:32:45.484Z,38.05
2023-03-22T01:35:12.594Z,38.01
2023-03-22T01:37:39.411Z,38.14
2023-03-22T01:40:07.071Z,38.20
2023-03-22T01:42:34.510Z,37.95
2023-03-22T01:45:20.142Z,38.20
2023-03-22T01:47:50.764Z,38.17
2023-03-22T01:50:17.827Z,38.23
2023-03-22T01:52:44.817Z,38.25
2023-03-22T01:55:11.854Z,38.16
2023-03-22T01:57:40.742Z,38.34
2023-03-22T02:03:24.961Z,37.97
2023-03-22T02:05:52.362Z,38.09
2023-03-22T02:08:19.822Z,37.89
2023-03-22T02:10:46.714Z,38.02
2023-03-22T02:13:19.794Z,37.97
2023-03-22T02:15:48.851Z,38.11
2023-03-22T02:18:22.113Z,37.93
2023-03-22T02:21:06.575Z,38.19
2023-03-22T02:24:01.438Z,38.07
2023-03-22T02:26:41.212Z,38.30
2023-03-22T02:29:12.928Z,38.39
2023-03-22T02:31:47.423Z,38.33
2023-03-22T02:34:28.976Z,38.38
2023-03-22T02:37:06.656Z,38.40
2023-03-22T02:39:40.502Z,38.46
2023-03-22T02:42:14.513Z,38.47
2023-03-22T02:44:42.606Z,38.24
2023-03-22T02:47:18.029Z,38.45
2023-03-22T02:49:47.106Z,38.51
2023-03-22T02:52:16.791Z,38.12
2023-03-22T02:54:48.834Z,38.28
2023-03-22T02:57:16.951Z,38.20
2023-03-22T02:59:45.455Z,38.15
2023-03-22T03:02:14.297Z,38.18
2023-03-22T03:04:43.529Z,38.45
2023-03-22T03:07:12.401Z,38.29
2023-03-22T03:09:40.660Z,38.25
2023-03-22T03:12:14.087Z,38.43
2023-03-22T03:14:40.894Z,38.41
2023-03-22T03:17:13.005Z,38.42
2023-03-22T03:19:45.158Z,38.68
2023-03-22T03:22:24.374Z,38.65
2023-03-22T03:24:54.640Z,38.66
2023-03-22T03:27:25.267Z,38.55
2023-03-22T03:29:55.170Z,38.66
2023-03-22T03:32:26.641Z,38.47
2023-03-22T03:34:55.682Z,38.61
2023-03-22T03:37:24.706Z,38.69
2023-03-22T03:39:54.086Z,38.43
2023-03-22T03:42:22.589Z,38.42
2023-03-22T03:44:50.916Z,38.34
2023-03-22T03:47:18.287Z,38.33
2023-03-22T03:49:45.110Z,38.49
2023-03-22T03:52:11.918Z,38.39
2023-03-22T03:54:38.740Z,38.21
2023-03-22T03:57:05.594Z,38.36
2023-03-22T03:59:32.397Z,38.48
2023-03-22T04:02:00.607Z,38.45
2023-03-22T04:04:28.160Z,38.46
2023-03-22T04:06:55.849Z,38.53
2023-03-22T04:09:23.054Z,38.65
2023-03-22T04:11:50.232Z,38.64
2023-03-22T04:14:17.021Z,38.72
2023-03-22T04:16:43.886Z,38.81
2023-03-22T04:19:12.101Z,38.67
2023-03-22T04:21:38.966Z,38.63
2023-03-22T04:24:05.934Z,38.59
2023-03-22T04:26:32.786Z,38.59
2023-03-22T04:28:59.593Z,38.96
2023-03-22T04:31:26.568Z,38.50
2023-03-22T04:33:53.448Z,38.49
2023-03-22T04:36:21.865Z,38.55
2023-03-22T04:38:49.038Z,38.48
2023-03-22T04:41:16.028Z,38.36
2023-03-22T04:43:42.984Z,38.56
2023-03-22T04:46:09.831Z,38.51
2023-03-22T04:48:37.079Z,38.40
2023-03-22T04:51:04.340Z,39.08
2023-03-22T04:53:32.565Z,39.04
2023-03-22T04:55:59.401Z,38.99
2023-03-22T04:58:26.833Z,38.87
2023-03-22T05:00:53.805Z,38.75
2023-03-22T05:03:20.868Z,39.48
2023-03-22T05:05:50.941Z,39.35
2023-03-22T05:08:17.808Z,37.88
2023-03-22T05:10:46.006Z,38.34
2023-03-22T05:13:12.834Z,38.26
2023-03-22T05:15:39.768Z,40.52
2023-03-22T05:18:06.697Z,41.25
2023-03-22T05:20:33.524Z,38.68
2023-03-22T05:23:00.347Z,37.46
2023-03-22T05:25:27.172Z,37.30
2023-03-22T05:27:55.345Z,37.17
2023-03-22T05:30:22.152Z,37.29
2023-03-22T05:32:49.035Z,37.12
2023-03-22T05:35:15.959Z,37.49
2023-03-22T05:37:42.848Z,37.61
2023-03-22T05:40:09.894Z,37.65
2023-03-22T05:42:36.704Z,37.65
2023-03-22T05:45:05.360Z,37.59
2023-03-22T05:47:32.176Z,37.88
2023-03-22T05:49:58.965Z,37.84
2023-03-22T05:52:25.770Z,38.41
2023-03-22T05:54:52.624Z,37.53
2023-03-22T05:57:19.458Z,35.96
2023-03-22T05:59:46.270Z,35.19
2023-03-22T06:02:16.723Z,34.90
2023-03-22T06:04:43.720Z,35.03
2023-03-22T06:07:10.517Z,35.56
2023-03-22T06:09:37.391Z,35.65
2023-03-22T06:12:04.776Z,35.19
2023-03-22T06:14:31.584Z,35.71
2023-03-22T06:16:58.464Z,35.69
2023-03-22T06:19:26.630Z,35.51
2023-03-22T06:21:54.122Z,35.48
2023-03-22T06:24:21.042Z,36.82
2023-03-22T06:26:47.841Z,36.63
2023-03-22T06:29:14.642Z,36.22
2023-03-22T06:31:41.577Z,36.77
2023-03-22T06:34:08.380Z,36.38
2023-03-22T06:36:36.554Z,36.32
2023-03-22T06:39:03.555Z,36.69
2023-03-22T06:41:30.479Z,36.43
2023-03-22T06:43:57.300Z,36.53
2023-03-22T06:46:24.243Z,36.69
2023-03-22T06:48:51.108Z,36.65
2023-03-22T06:51:17.927Z,36.72
2023-03-22T06:53:46.127Z,36.64
2023-03-22T06:56:12.979Z,36.44
2023-03-22T06:58:39.770Z,36.67
2023-03-22T07:01:06.692Z,36.75
2023-03-22T07:03:33.498Z,36.65
2023-03-22T07:06:00.833Z,36.71
2023-03-22T07:08:27.656Z,36.89
2023-03-22T07:10:55.800Z,36.75
2023-03-22T07:13:22.625Z,37.04
2023-03-22T07:15:49.570Z,37.11
2023-03-22T07:18:16.402Z,37.14
2023-03-22T07:20:43.200Z,37.09
2023-03-22T07:23:10.076Z,37.31
2023-03-22T07:25:36.927Z,37.01
2023-03-22T07:28:05.083Z,37.08
2023-03-22T07:30:31.965Z,37.37
2023-03-22T07:32:58.765Z,37.32
2023-03-22T07:35:26.953Z,37.21
2023-03-22T07:37:53.905Z,37.36
2023-03-22T07:40:20.794Z,37.22
2023-03-22T07:42:47.988Z,37.30
2023-03-22T07:45:16.323Z,37.29
2023-03-22T07:47:43.324Z,37.12
2023-03-22T07:50:10.821Z,37.16
2023-03-22T07:52:37.666Z,37.07
2023-03-22T07:55:04.806Z,37.30
2023-03-22T07:57:31.868Z,37.48
2023-03-22T07:59:58.827Z,37.43
2023-03-22T08:02:27.098Z,37.32
2023-03-22T08:04:56.210Z,37.47
2023-03-22T08:07:23.672Z,37.57
2023-03-22T08:09:50.599Z,37.41
2023-03-22T08:12:17.578Z,37.30
2023-03-22T08:14:44.579Z,37.35
2023-03-22T08:17:11.410Z,37.35
2023-03-22T08:19:39.761Z,37.21
2023-03-22T08:22:06.741Z,37.50
2023-03-22T08:24:33.840Z,37.47
2023-03-22T08:27:00.652Z,37.87
2023-03-22T08:29:27.606Z,37.69
2023-03-22T08:31:54.473Z,37.88
2023-03-22T08:34:21.369Z,37.59
2023-03-22T08:36:49.694Z,37.44
2023-03-22T08:39:16.504Z,37.45
2023-03-22T08:41:43.326Z,37.47
2023-03-22T08:44:10.993Z,37.50
2023-03-22T08:46:37.824Z,37.40
2023-03-22T08:49:04.655Z,37.50
2023-03-22T08:51:31.493Z,37.25
2023-03-22T08:54:01.657Z,37.40
2023-03-22T08:56:28.472Z,37.36
2023-03-22T08:58:55.307Z,37.21
2023-03-22T09:01:22.250Z,37.12
2023-03-22T09:03:49.096Z,36.87
2023-03-22T09:06:15.931Z,37.13
2023-03-22T09:08:42.856Z,37.23
2023-03-22T09:11:11.501Z,37.25
2023-03-22T09:13:38.805Z,37.56
2023-03-22T09:16:06.570Z,37.67
2023-03-22T09:18:33.410Z,37.55
2023-03-22T09:21:00.233Z,37.78
2023-03-22T09:23:27.083Z,37.65
2023-03-22T09:25:53.912Z,37.51
2023-03-22T09:28:22.192Z,37.43
2023-03-22T09:30:49.028Z,37.38
2023-03-22T09:33:15.838Z,37.16
2023-03-22T09:35:43.601Z,37.33
2023-03-22T09:38:11.098Z,37.17
2023-03-22T09:40:43.114Z,37.16
2023-03-22T09:43:12.133Z,37.04
2023-03-22T09:45:43.017Z,36.92
2023-03-22T09:48:14.009Z,37.02
2023-03-22T09:50:44.490Z,37.08
2023-03-22T09:53:13.077Z,37.22
2023-03-22T09:55:43.335Z,37.26
2023-03-22T09:58:16.516Z,37.17
2023-03-22T10:00:47.420Z,37.28
2023-03-22T10:03:19.287Z,37.32
2023-03-22T10:05:49.486Z,37.26
2023-03-22T10:08:32.010Z,37.43
2023-03-22T10:10:59.554Z,37.61
2023-03-22T10:13:32.017Z,37.51
2023-03-22T10:16:02.145Z,37.42
2023-03-22T10:18:33.011Z,37.15
2023-03-22T10:21:01.359Z,37.04
2023-03-22T10:23:31.437Z,37.08
2023-03-22T10:25:59.985Z,37.05
2023-03-22T10:28:28.901Z,37.14
2023-03-22T10:30:58.061Z,36.86
2023-03-22T10:33:35.299Z,37.20
2023-03-22T10:36:03.995Z,37.26
2023-03-22T10:38:31.522Z,37.08
2023-03-22T10:40:59.264Z,37.30
2023-03-22T10:43:30.266Z,37.22
2023-03-22T10:45:58.510Z,37.19
2023-03-22T10:48:27.537Z,37.05
2023-03-22T10:50:56.873Z,37.25
2023-03-22T10:53:28.260Z,37.16
2023-03-22T10:55:55.609Z,37.45
2023-03-22T10:58:22.995Z,37.21
2023-03-22T11:00:51.070Z,37.15
2023-03-22T11:03:25.669Z,37.14
2023-03-22T11:05:59.329Z,37.21
2023-03-22T11:08:26.319Z,37.03
2023-03-22T11:10:53.402Z,37.18
2023-03-22T11:13:20.758Z,36.78
2023-03-22T11:15:52.298Z,36.91
2023-03-22T11:18:19.446Z,36.84
2023-03-22T11:20:53.977Z,36.86
2023-03-22T11:23:22.668Z,36.86
2023-03-22T11:25:50.838Z,37.00
2023-03-22T11:28:18.950Z,37.12
2023-03-22T11:30:58.984Z,37.00
2023-03-22T11:33:25.956Z,36.96
2023-03-22T11:35:54.265Z,37.02
2023-03-22T11:38:26.773Z,37.12
2023-03-22T11:40:54.834Z,36.96
2023-03-22T11:43:22.983Z,37.08
2023-03-22T11:45:51.784Z,36.96
2023-03-22T11:48:21.006Z,36.90
2023-03-22T11:50:48.030Z,37.08
2023-03-22T11:53:16.619Z,36.89
2023-03-22T11:55:45.350Z,36.90
2023-03-22T11:58:23.633Z,37.01
2023-03-22T12:00:52.049Z,36.85
2023-03-22T12:03:21.606Z,37.03
2023-03-22T12:05:49.883Z,36.84
2023-03-22T12:08:19.234Z,36.71
2023-03-22T12:10:49.251Z,37.02
2023-03-22T12:13:19.681Z,36.89
2023-03-22T12:15:48.901Z,37.04
2023-03-22T12:18:17.407Z,36.91
2023-03-22T12:20:49.081Z,36.84
2023-03-22T12:23:17.120Z,36.73
2023-03-22T12:25:46.380Z,36.91
2023-03-22T12:28:15.997Z,36.96
2023-03-22T12:30:45.264Z,36.68
2023-03-22T12:33:16.311Z,36.64
2023-03-22T12:35:44.792Z,36.79
2023-03-22T12:38:23.446Z,36.76
2023-03-22T12:40:52.423Z,36.45
2023-03-22T12:43:24.860Z,36.62
2023-03-22T12:45:54.853Z,36.70
2023-03-22T12:48:33.924Z,36.58
2023-03-22T12:51:03.058Z,36.52
2023-03-22T12:53:33.466Z,36.45
2023-03-22T12:56:00.814Z,36.52
2023-03-22T12:58:29.014Z,36.68
2023-03-22T13:00:56.845Z,36.65
2023-03-22T13:03:25.587Z,36.50
2023-03-22T13:05:59.712Z,36.25
2023-03-22T13:08:46.683Z,36.59
2023-03-22T13:11:22.109Z,36.57
2023-03-22T13:13:50.324Z,36.39
2023-03-22T13:16:20.183Z,36.15
2023-03-22T13:18:57.438Z,36.30
2023-03-22T13:21:25.416Z,36.30
2023-03-22T13:23:53.472Z,35.99
2023-03-22T13:26:22.395Z,35.86
2023-03-22T13:28:58.296Z,35.88
2023-03-22T13:31:40.654Z,35.73
2023-03-22T13:34:18.490Z,35.54
2023-03-22T13:36:49.418Z,35.56
2023-03-22T13:39:16.533Z,35.75
2023-03-22T13:41:45.766Z,35.72
2023-03-22T13:44:25.033Z,35.52
2023-03-22T13:46:52.505Z,35.68
2023-03-22T13:49:42.550Z,35.49
2023-03-22T13:52:09.755Z,35.44
2023-03-22T13:54:40.139Z,35.71
2023-03-22T13:57:15.464Z,35.64
2023-03-22T14:00:08.878Z,35.73
2023-03-22T14:02:40.276Z,35.70
2023-03-22T14:05:08.969Z,36.02
2023-03-22T14:07:39.679Z,36.11
2023-03-22T14:10:12.666Z,35.90
2023-03-22T14:12:46.183Z,36.12
2023-03-22T14:15:15.780Z,35.90
2023-03-22T14:17:46.769Z,35.85
2023-03-22T14:20:17.760Z,35.65
